createdAt,value
2018-09-19T00:01:01.666Z,87.80
2018-09-19T00:03:31.375Z,87.60
2018-09-19T00:06:01.101Z,87.60
2018-09-19T00:08:30.553Z,87.40
2018-09-19T00:11:00.319Z,87.10
2018-09-19T00:13:30.025Z,87.30
2018-09-19T00:15:59.527Z,87.20
2018-09-19T00:18:29.086Z,87.20
2018-09-19T00:20:58.783Z,87.50
2018-09-19T00:23:28.420Z,87.40
2018-09-19T00:25:58.149Z,87.40
2018-09-19T00:28:27.762Z,87.20
2018-09-19T00:30:57.387Z,87.20
2018-09-19T00:33:27.104Z,87.30
2018-09-19T00:35:56.589Z,87.20
2018-09-19T00:38:26.282Z,87.10
2018-09-19T00:40:55.777Z,87.10
2018-09-19T00:43:25.451Z,87.50
2018-09-19T00:45:55.090Z,87.90
2018-09-19T00:48:24.782Z,87.90
2018-09-19T00:50:54.448Z,87.90
2018-09-19T00:53:24.360Z,87.90
2018-09-19T00:55:54.065Z,88.00
2018-09-19T00:58:23.783Z,87.90
2018-09-19T01:00:53.403Z,87.70
2018-09-19T01:03:23.720Z,87.50
2018-09-19T01:05:53.234Z,87.40
2018-09-19T01:08:22.775Z,87.30
2018-09-19T01:10:52.510Z,87.30
2018-09-19T01:13:22.191Z,87.40
2018-09-19T01:15:51.967Z,87.20
2018-09-19T01:18:21.771Z,87.20
2018-09-19T01:20:51.323Z,87.20
2018-09-19T01:23:20.909Z,87.40
2018-09-19T01:25:50.495Z,87.50
2018-09-19T01:28:20.051Z,87.10
2018-09-19T01:30:49.851Z,87.10
2018-09-19T01:33:19.591Z,87.10
2018-09-19T01:35:49.138Z,87.20
2018-09-19T01:38:18.796Z,87.10
2018-09-19T01:40:49.247Z,86.80
2018-09-19T01:43:19.188Z,86.70
2018-09-19T01:45:48.895Z,86.60
2018-09-19T01:48:18.320Z,86.40
2018-09-19T01:50:47.964Z,86.60
2018-09-19T01:53:17.600Z,86.60
2018-09-19T01:55:47.233Z,86.60
2018-09-19T01:58:16.898Z,87.40
2018-09-19T02:00:46.504Z,88.10
2018-09-19T02:03:16.229Z,88.80
2018-09-19T02:05:45.955Z,89.00
2018-09-19T02:08:15.502Z,89.10
2018-09-19T02:10:45.174Z,89.30
2018-09-19T02:13:14.933Z,89.20
2018-09-19T02:15:44.567Z,89.30
2018-09-19T02:18:14.324Z,89.30
2018-09-19T02:20:45.236Z,89.30
2018-09-19T02:23:14.889Z,89.30
2018-09-19T02:25:44.805Z,89.20
2018-09-19T02:28:14.543Z,89.00
2018-09-19T02:30:44.311Z,89.10
2018-09-19T02:33:14.040Z,89.00
2018-09-19T02:35:43.589Z,88.90
2018-09-19T02:38:13.357Z,88.90
2018-09-19T02:40:43.029Z,88.50
2018-09-19T02:43:12.654Z,88.30
2018-09-19T02:45:42.331Z,88.20
2018-09-19T02:48:12.108Z,87.70
2018-09-19T02:50:42.398Z,87.70
2018-09-19T02:53:11.897Z,87.70
2018-09-19T02:55:41.375Z,87.70
2018-09-19T02:58:10.947Z,87.50
2018-09-19T03:00:40.493Z,87.60
2018-09-19T03:03:10.825Z,87.40
2018-09-19T03:05:40.423Z,87.50
2018-09-19T03:08:10.105Z,87.60
2018-09-19T03:10:39.537Z,87.60
2018-09-19T03:13:09.307Z,87.90
2018-09-19T03:15:38.784Z,88.20
2018-09-19T03:18:08.491Z,88.30
2018-09-19T03:20:38.165Z,88.40
2018-09-19T03:23:07.719Z,88.50
2018-09-19T03:25:37.352Z,88.50
2018-09-19T03:28:07.231Z,88.50
2018-09-19T03:30:36.939Z,88.50
2018-09-19T03:33:06.627Z,88.40
2018-09-19T03:35:36.516Z,88.50
2018-09-19T03:38:06.236Z,88.40
2018-09-19T03:40:35.891Z,88.50
2018-09-19T03:43:05.455Z,88.60
2018-09-19T03:45:35.351Z,88.80
2018-09-19T03:48:05.053Z,88.80
2018-09-19T03:50:34.614Z,88.80
2018-09-19T03:53:04.180Z,88.90
2018-09-19T03:55:33.808Z,89.00
2018-09-19T03:58:03.525Z,88.80
2018-09-19T04:00:33.258Z,88.70
2018-09-19T04:03:02.920Z,88.60
2018-09-19T04:05:32.632Z,88.50
2018-09-19T04:08:02.338Z,88.40
2018-09-19T04:10:31.917Z,88.20
2018-09-19T04:13:01.741Z,88.10
2018-09-19T04:15:31.380Z,88.00
2018-09-19T04:18:01.050Z,88.00
2018-09-19T04:20:30.757Z,88.10
2018-09-19T04:23:00.466Z,88.20
2018-09-19T04:25:30.083Z,88.20
2018-09-19T04:28:01.481Z,88.10
2018-09-19T04:30:31.231Z,88.30
2018-09-19T04:33:00.970Z,88.20
2018-09-19T04:35:30.667Z,88.20
2018-09-19T04:38:00.487Z,88.10
2018-09-19T04:40:29.941Z,88.30
2018-09-19T04:42:59.830Z,88.30
2018-09-19T04:45:29.579Z,88.20
2018-09-19T04:47:59.228Z,88.00
2018-09-19T04:50:28.916Z,88.50
2018-09-19T04:52:58.562Z,87.70
2018-09-19T04:55:28.162Z,87.20
2018-09-19T04:57:57.970Z,87.30
2018-09-19T05:00:27.519Z,87.10
2018-09-19T05:02:58.483Z,86.80
2018-09-19T05:05:28.106Z,86.40
2018-09-19T05:07:57.685Z,86.20
2018-09-19T05:10:27.407Z,86.60
2018-09-19T05:12:57.029Z,86.60
2018-09-19T05:15:26.565Z,86.70
2018-09-19T05:17:56.092Z,87.00
2018-09-19T05:20:25.900Z,87.40
2018-09-19T05:22:55.904Z,87.30
2018-09-19T05:25:25.639Z,87.10
2018-09-19T05:27:55.136Z,87.30
2018-09-19T05:30:24.932Z,87.10
2018-09-19T05:32:54.576Z,87.10
2018-09-19T05:35:24.184Z,86.90
2018-09-19T05:37:53.795Z,87.20
2018-09-19T05:40:23.354Z,87.10
2018-09-19T05:42:52.975Z,86.90
2018-09-19T05:45:22.695Z,87.30
2018-09-19T05:47:52.513Z,87.30
2018-09-19T05:50:22.158Z,87.50
2018-09-19T05:52:51.901Z,87.60
2018-09-19T05:55:21.670Z,87.40
2018-09-19T05:57:51.420Z,87.20
2018-09-19T06:00:20.876Z,87.40
2018-09-19T06:02:50.537Z,87.20
2018-09-19T06:05:21.253Z,87.90
2018-09-19T06:07:50.833Z,87.40
2018-09-19T06:10:24.159Z,87.50
2018-09-19T06:12:54.617Z,87.60
2018-09-19T06:15:24.094Z,87.50
2018-09-19T06:17:53.643Z,87.30
2018-09-19T06:20:23.307Z,87.30
2018-09-19T06:22:52.918Z,87.20
2018-09-19T06:25:22.560Z,86.90
2018-09-19T06:27:52.176Z,88.20
2018-09-19T06:30:21.900Z,87.30
2018-09-19T06:32:51.816Z,87.40
2018-09-19T06:35:21.326Z,87.60
2018-09-19T06:37:51.013Z,87.90
2018-09-19T06:40:21.529Z,87.80
2018-09-19T06:42:51.249Z,88.00
2018-09-19T06:45:21.922Z,88.20
2018-09-19T06:47:52.026Z,88.20
2018-09-19T06:50:22.040Z,88.20
2018-09-19T06:52:51.732Z,88.10
2018-09-19T06:55:22.172Z,88.20
2018-09-19T06:57:51.940Z,88.30
2018-09-19T07:00:21.628Z,88.50
2018-09-19T07:02:52.024Z,88.60
2018-09-19T07:05:21.717Z,88.30
2018-09-19T07:07:51.521Z,88.30
2018-09-19T07:10:21.111Z,88.30
2018-09-19T07:12:50.869Z,88.30
2018-09-19T07:15:20.405Z,88.40
2018-09-19T07:17:49.932Z,88.40
2018-09-19T07:20:19.688Z,88.40
2018-09-19T07:22:49.292Z,88.60
2018-09-19T07:25:19.068Z,88.40
2018-09-19T07:27:48.724Z,88.80
2018-09-19T07:30:18.171Z,88.80
2018-09-19T07:32:47.901Z,88.90
2018-09-19T07:35:17.418Z,89.50
2018-09-19T07:37:47.003Z,88.90
2018-09-19T07:40:16.906Z,88.80
2018-09-19T07:42:46.511Z,88.60
2018-09-19T07:45:16.494Z,88.70
2018-09-19T07:47:46.257Z,89.30
2018-09-19T07:50:16.014Z,88.60
2018-09-19T07:52:45.599Z,88.90
2018-09-19T07:55:15.227Z,88.80
2018-09-19T07:57:45.932Z,88.90
2018-09-19T08:00:16.205Z,88.80
2018-09-19T08:02:45.901Z,88.60
2018-09-19T08:05:15.574Z,88.60
2018-09-19T08:07:45.228Z,88.50
2018-09-19T08:10:14.842Z,88.40
2018-09-19T08:12:44.647Z,88.30
2018-09-19T08:15:14.297Z,88.20
2018-09-19T08:17:43.933Z,88.00
2018-09-19T08:20:13.750Z,87.50
2018-09-19T08:22:44.121Z,87.50
2018-09-19T08:25:13.737Z,87.30
2018-09-19T08:27:43.409Z,87.40
2018-09-19T08:30:12.982Z,87.30
2018-09-19T08:32:42.676Z,87.40
2018-09-19T08:35:12.358Z,87.90
2018-09-19T08:37:42.031Z,87.80
2018-09-19T08:40:11.704Z,87.50
2018-09-19T08:42:41.406Z,87.40
2018-09-19T08:45:11.079Z,87.40
2018-09-19T08:47:40.643Z,87.90
2018-09-19T08:50:09.883Z,87.70
2018-09-19T08:52:39.557Z,87.70
2018-09-19T08:55:09.265Z,87.70
2018-09-19T08:57:38.934Z,88.70
2018-09-19T09:00:09.307Z,88.00
2018-09-19T09:02:39.161Z,87.90
2018-09-19T09:05:08.684Z,87.70
2018-09-19T09:07:38.458Z,87.70
2018-09-19T09:10:08.112Z,87.50
2018-09-19T09:12:37.715Z,87.60
2018-09-19T09:15:07.239Z,87.50
2018-09-19T09:17:36.789Z,87.40
2018-09-19T09:20:06.815Z,88.20
2018-09-19T09:22:38.666Z,87.50
2018-09-19T09:25:08.279Z,87.50
2018-09-19T09:27:37.892Z,87.50
2018-09-19T09:30:07.570Z,87.50
2018-09-19T09:32:37.252Z,87.40
2018-09-19T09:35:06.997Z,87.10
2018-09-19T09:37:36.645Z,87.10
2018-09-19T09:40:06.402Z,87.60
2018-09-19T09:42:36.157Z,86.90
2018-09-19T09:45:05.986Z,87.00
2018-09-19T09:47:35.706Z,87.10
2018-09-19T09:50:05.358Z,87.20
2018-09-19T09:52:35.111Z,87.10
2018-09-19T09:55:04.955Z,87.10
2018-09-19T09:57:34.739Z,87.00
2018-09-19T10:00:04.332Z,86.80
2018-09-19T10:02:33.743Z,87.40
2018-09-19T10:05:03.434Z,86.80
2018-09-19T10:07:33.038Z,87.90
2018-09-19T10:10:02.790Z,86.90
2018-09-19T10:12:33.153Z,87.20
2018-09-19T10:15:02.918Z,86.90
2018-09-19T10:17:32.697Z,87.00
2018-09-19T10:20:02.415Z,86.70
2018-09-19T10:22:31.912Z,86.80
2018-09-19T10:25:01.682Z,87.30
2018-09-19T10:27:31.539Z,87.10
2018-09-19T10:30:01.174Z,86.80
2018-09-19T10:32:30.567Z,87.40
2018-09-19T10:35:00.201Z,86.50
2018-09-19T10:37:29.808Z,86.60
2018-09-19T10:39:59.503Z,87.10
2018-09-19T10:42:29.095Z,86.90
2018-09-19T10:44:58.796Z,86.50
2018-09-19T10:47:29.245Z,87.30
2018-09-19T10:49:58.789Z,86.60
2018-09-19T10:52:28.593Z,86.80
2018-09-19T10:54:58.259Z,86.80
2018-09-19T10:57:27.916Z,87.20
2018-09-19T10:59:57.347Z,87.90
2018-09-19T11:02:27.117Z,87.60
2018-09-19T11:04:56.855Z,87.70
2018-09-19T11:07:26.465Z,87.50
2018-09-19T11:09:55.927Z,87.80
2018-09-19T11:12:25.583Z,87.50
2018-09-19T11:14:55.333Z,87.40
2018-09-19T11:17:24.896Z,87.30
2018-09-19T11:19:54.664Z,87.20
2018-09-19T11:22:24.924Z,87.90
2018-09-19T11:24:54.582Z,87.20
2018-09-19T11:27:24.065Z,87.30
2018-09-19T11:29:53.778Z,86.40
2018-09-19T11:32:23.476Z,85.80
2018-09-19T11:34:53.176Z,85.40
2018-09-19T11:37:22.759Z,85.80
2018-09-19T11:39:52.385Z,86.20
2018-09-19T11:42:22.084Z,85.80
2018-09-19T11:44:51.815Z,85.80
2018-09-19T11:47:21.295Z,85.20
2018-09-19T11:49:50.917Z,85.30
2018-09-19T11:52:20.566Z,85.20
2018-09-19T11:54:50.143Z,85.40
2018-09-19T11:57:19.876Z,85.00
2018-09-19T11:59:49.554Z,84.70
2018-09-19T12:02:19.523Z,83.90
2018-09-19T12:04:49.259Z,83.70
2018-09-19T12:07:18.851Z,85.10
2018-09-19T12:09:49.012Z,84.00
2018-09-19T12:12:18.556Z,84.10
2018-09-19T12:14:48.139Z,84.30
2018-09-19T12:17:17.738Z,84.90
2018-09-19T12:19:47.182Z,84.60
2018-09-19T12:22:16.824Z,84.60
2018-09-19T12:24:46.372Z,84.70
2018-09-19T12:27:16.612Z,84.50
2018-09-19T12:29:46.375Z,84.60
2018-09-19T12:32:15.925Z,84.40
2018-09-19T12:34:45.387Z,84.90
2018-09-19T12:37:15.179Z,84.80
2018-09-19T12:39:44.628Z,84.90
2018-09-19T12:42:14.142Z,85.00
2018-09-19T12:44:43.987Z,84.90
2018-09-19T12:47:13.843Z,84.60
2018-09-19T12:49:43.267Z,84.50
2018-09-19T12:52:12.778Z,84.30
2018-09-19T12:54:42.582Z,84.40
2018-09-19T12:57:12.310Z,84.40
2018-09-19T12:59:42.049Z,84.90
2018-09-19T13:02:11.800Z,84.80
2018-09-19T13:04:41.373Z,85.00
2018-09-19T13:07:11.249Z,84.90
2018-09-19T13:09:40.878Z,85.40
2018-09-19T13:12:10.570Z,84.80
2018-09-19T13:14:40.395Z,84.50
2018-09-19T13:17:10.014Z,86.00
2018-09-19T13:19:39.788Z,84.70
2018-09-19T13:22:09.505Z,84.30
2018-09-19T13:24:39.272Z,85.00
2018-09-19T13:27:08.815Z,84.40
2018-09-19T13:29:38.282Z,86.70
2018-09-19T13:32:07.899Z,85.20
2018-09-19T13:34:37.676Z,85.30
2018-09-19T13:37:07.422Z,85.40
2018-09-19T13:39:37.110Z,85.00
2018-09-19T13:42:06.745Z,85.10
2018-09-19T13:44:36.812Z,85.10
2018-09-19T13:47:06.731Z,84.40
2018-09-19T13:49:55.859Z,84.60
2018-09-19T13:52:25.772Z,84.70
2018-09-19T13:54:55.354Z,84.60
2018-09-19T13:57:26.007Z,84.60
2018-09-19T13:59:55.706Z,85.40
2018-09-19T14:02:25.339Z,85.30
2018-09-19T14:04:55.052Z,85.00
2018-09-19T14:07:24.567Z,84.90
2018-09-19T14:09:54.207Z,84.60
2018-09-19T14:12:24.309Z,84.90
2018-09-19T14:14:54.380Z,85.30
2018-09-19T14:17:24.343Z,84.80
2018-09-19T14:19:54.033Z,85.20
2018-09-19T14:22:23.668Z,84.70
2018-09-19T14:24:53.452Z,84.80
2018-09-19T14:27:23.222Z,85.30
2018-09-19T14:29:53.072Z,85.60
2018-09-19T14:32:26.729Z,85.50
2018-09-19T14:34:56.383Z,85.80
2018-09-19T14:37:25.966Z,85.70
2018-09-19T14:39:55.374Z,85.70
2018-09-19T14:42:24.997Z,85.80
2018-09-19T14:44:54.671Z,85.70
2018-09-19T14:47:24.224Z,85.70
2018-09-19T14:49:53.587Z,85.70
2018-09-19T14:52:23.270Z,85.80
2018-09-19T14:54:53.248Z,85.70
2018-09-19T14:57:22.775Z,85.70
2018-09-19T14:59:52.332Z,85.70
2018-09-19T15:02:22.024Z,85.90
2018-09-19T15:04:52.048Z,86.00
2018-09-19T15:07:21.699Z,85.90
2018-09-19T15:09:51.313Z,86.00
2018-09-19T15:12:20.914Z,85.80
2018-09-19T15:14:50.539Z,85.80
2018-09-19T15:17:20.128Z,85.80
2018-09-19T15:19:49.644Z,85.90
2018-09-19T15:22:19.169Z,86.20
2018-09-19T15:24:48.754Z,86.10
2018-09-19T15:27:18.348Z,86.00
2018-09-19T15:29:47.991Z,86.00
2018-09-19T15:32:17.699Z,86.60
2018-09-19T15:34:47.332Z,86.20
2018-09-19T15:37:16.889Z,86.00
2018-09-19T15:39:46.424Z,86.50
2018-09-19T15:42:15.999Z,86.00
2018-09-19T15:44:45.690Z,86.20
2018-09-19T15:47:15.738Z,86.00
2018-09-19T15:49:45.472Z,86.50
2018-09-19T15:52:15.204Z,86.60
2018-09-19T15:54:44.891Z,86.50
2018-09-19T15:57:14.596Z,86.50
2018-09-19T15:59:44.522Z,86.50
2018-09-19T16:02:14.063Z,86.60
2018-09-19T16:04:43.823Z,86.60
2018-09-19T16:07:13.654Z,86.80
2018-09-19T16:09:43.444Z,86.60
2018-09-19T16:12:13.027Z,87.00
2018-09-19T16:14:42.651Z,86.80
2018-09-19T16:17:12.350Z,86.90
2018-09-19T16:19:42.085Z,86.90
2018-09-19T16:22:11.785Z,87.00
2018-09-19T16:24:41.656Z,86.90
2018-09-19T16:27:11.549Z,87.00
2018-09-19T16:29:41.548Z,86.90
2018-09-19T16:32:11.253Z,86.90
2018-09-19T16:34:41.716Z,86.90
2018-09-19T16:37:11.580Z,86.90
2018-09-19T16:39:41.177Z,87.00
2018-09-19T16:42:10.985Z,87.10
2018-09-19T16:44:40.605Z,87.10
2018-09-19T16:47:10.244Z,87.30
2018-09-19T16:49:39.851Z,88.20
2018-09-19T16:52:10.798Z,87.20
2018-09-19T16:54:40.596Z,86.90
2018-09-19T16:57:10.210Z,86.80
2018-09-19T16:59:39.987Z,86.50
2018-09-19T17:02:09.833Z,86.40
2018-09-19T17:04:40.176Z,86.30
2018-09-19T17:07:09.758Z,86.30
2018-09-19T17:09:39.440Z,86.30
2018-09-19T17:12:09.296Z,86.30
2018-09-19T17:14:38.938Z,86.20
2018-09-19T17:17:08.733Z,86.10
2018-09-19T17:19:38.496Z,86.00
2018-09-19T17:22:08.155Z,85.90
2018-09-19T17:24:37.738Z,85.80
2018-09-19T17:27:07.518Z,85.90
2018-09-19T17:29:37.211Z,85.80
2018-09-19T17:32:07.192Z,85.80
2018-09-19T17:34:37.046Z,85.70
2018-09-19T17:37:06.964Z,85.70
2018-09-19T17:39:36.481Z,85.70
2018-09-19T17:42:06.130Z,85.80
2018-09-19T17:44:35.728Z,85.90
2018-09-19T17:47:05.386Z,85.90
2018-09-19T17:49:35.226Z,86.10
2018-09-19T17:52:05.308Z,85.90
2018-09-19T17:54:35.067Z,85.80
2018-09-19T17:57:04.811Z,85.90
2018-09-19T17:59:34.472Z,85.90
2018-09-19T18:02:04.239Z,86.10
2018-09-19T18:04:34.181Z,86.10
2018-09-19T18:07:03.936Z,86.10
2018-09-19T18:09:33.770Z,86.20
2018-09-19T18:12:03.550Z,86.30
2018-09-19T18:14:33.258Z,86.30
2018-09-19T18:17:02.986Z,86.70
2018-09-19T18:19:32.712Z,85.70
2018-09-19T18:22:02.368Z,85.20
2018-09-19T18:24:32.208Z,84.90
2018-09-19T18:27:01.760Z,84.80
2018-09-19T18:29:31.343Z,84.50
2018-09-19T18:32:00.967Z,84.60
2018-09-19T18:34:30.625Z,84.90
2018-09-19T18:37:00.182Z,84.10
2018-09-19T18:39:30.455Z,84.10
2018-09-19T18:42:00.117Z,83.50
2018-09-19T18:44:30.133Z,83.90
2018-09-19T18:46:59.905Z,83.50
2018-09-19T18:49:29.638Z,83.80
2018-09-19T18:51:59.364Z,83.70
2018-09-19T18:54:29.036Z,84.20
2018-09-19T18:56:58.695Z,83.80
2018-09-19T18:59:28.254Z,84.00
2018-09-19T19:01:57.919Z,83.80
2018-09-19T19:04:27.726Z,83.90
2018-09-19T19:06:57.327Z,84.00
2018-09-19T19:09:26.920Z,84.00
2018-09-19T19:11:56.541Z,84.00
2018-09-19T19:14:26.286Z,84.40
2018-09-19T19:16:56.190Z,84.80
2018-09-19T19:19:25.909Z,85.10
2018-09-19T19:21:55.631Z,84.90
2018-09-19T19:24:25.411Z,85.00
2018-09-19T19:26:55.134Z,85.20
2018-09-19T19:29:24.849Z,85.10
2018-09-19T19:31:54.546Z,85.40
2018-09-19T19:34:24.156Z,85.20
2018-09-19T19:36:53.684Z,85.10
2018-09-19T19:39:23.304Z,85.00
2018-09-19T19:41:53.076Z,85.30
2018-09-19T19:44:22.556Z,85.00
2018-09-19T19:46:52.506Z,84.80
2018-09-19T19:49:22.195Z,84.50
2018-09-19T19:51:51.982Z,85.10
2018-09-19T19:54:21.518Z,85.10
2018-09-19T19:56:51.358Z,85.20
2018-09-19T19:59:21.005Z,85.50
2018-09-19T20:01:50.567Z,85.10
2018-09-19T20:04:20.244Z,85.40
2018-09-19T20:06:49.982Z,85.10
2018-09-19T20:09:19.545Z,85.50
2018-09-19T20:11:49.206Z,85.50
2018-09-19T20:14:18.758Z,85.60
2018-09-19T20:16:48.372Z,85.90
2018-09-19T20:19:18.684Z,86.10
2018-09-19T20:21:48.311Z,86.30
2018-09-19T20:24:17.818Z,85.90
2018-09-19T20:26:47.436Z,86.20
2018-09-19T20:29:17.184Z,85.90
2018-09-19T20:31:46.748Z,86.30
2018-09-19T20:34:16.469Z,86.30
2018-09-19T20:36:46.451Z,86.30
2018-09-19T20:39:16.031Z,86.00
2018-09-19T20:41:45.671Z,86.00
2018-09-19T20:44:15.344Z,86.00
2018-09-19T20:46:44.807Z,86.10
2018-09-19T20:49:14.399Z,86.10
2018-09-19T20:51:43.899Z,86.20
2018-09-19T20:54:13.520Z,86.10
2018-09-19T20:56:43.036Z,86.40
2018-09-19T20:59:12.619Z,86.50
2018-09-19T21:01:43.053Z,87.00
2018-09-19T21:04:12.975Z,86.30
2018-09-19T21:06:42.608Z,86.30
2018-09-19T21:09:12.134Z,86.30
2018-09-19T21:11:41.833Z,86.20
2018-09-19T21:14:11.450Z,86.20
2018-09-19T21:16:41.163Z,86.40
2018-09-19T21:19:10.696Z,86.40
2018-09-19T21:21:40.419Z,86.50
2018-09-19T21:24:10.007Z,86.30
2018-09-19T21:26:39.666Z,86.30
2018-09-19T21:29:09.103Z,86.20
2018-09-19T21:31:38.841Z,86.20
2018-09-19T21:34:08.419Z,86.20
2018-09-19T21:36:38.018Z,86.20
2018-09-19T21:39:10.192Z,86.10
2018-09-19T21:41:40.370Z,86.20
2018-09-19T21:44:10.611Z,86.20
2018-09-19T21:46:40.185Z,86.30
2018-09-19T21:49:09.927Z,86.50
2018-09-19T21:51:39.674Z,86.60
2018-09-19T21:54:09.243Z,86.30
2018-09-19T21:56:38.883Z,86.30
2018-09-19T21:59:08.601Z,86.30
2018-09-19T22:01:41.634Z,86.20
2018-09-19T22:04:11.543Z,86.40
2018-09-19T22:06:41.306Z,86.10
2018-09-19T22:09:12.566Z,86.20
2018-09-19T22:11:42.158Z,86.00
2018-09-19T22:14:12.039Z,85.80
2018-09-19T22:16:41.539Z,86.00
2018-09-19T22:19:11.358Z,85.90
2018-09-19T22:21:41.122Z,85.90
2018-09-19T22:24:10.599Z,86.20
2018-09-19T22:26:40.218Z,85.90
2018-09-19T22:29:09.766Z,85.40
2018-09-19T22:31:39.579Z,85.90
2018-09-19T22:34:09.043Z,86.00
2018-09-19T22:36:38.601Z,85.80
2018-09-19T22:39:09.332Z,85.70
2018-09-19T22:41:38.926Z,85.70
2018-09-19T22:44:08.468Z,85.90
2018-09-19T22:46:38.033Z,86.00
2018-09-19T22:49:07.717Z,85.80
2018-09-19T22:51:37.411Z,85.80
2018-09-19T22:54:07.106Z,85.70
2018-09-19T22:56:36.627Z,85.50
2018-09-19T22:59:06.275Z,85.40
2018-09-19T23:01:35.831Z,85.40
2018-09-19T23:04:05.475Z,85.60
2018-09-19T23:06:35.451Z,85.70
2018-09-19T23:09:06.241Z,86.00
2018-09-19T23:11:35.909Z,86.50
2018-09-19T23:14:05.707Z,86.20
2018-09-19T23:16:35.371Z,86.20
2018-09-19T23:19:04.994Z,86.20
2018-09-19T23:21:34.474Z,86.10
2018-09-19T23:24:03.893Z,86.20
2018-09-19T23:26:33.404Z,86.40
2018-09-19T23:29:03.077Z,86.50
2018-09-19T23:31:32.739Z,86.20
2018-09-19T23:34:02.288Z,86.00
2018-09-19T23:36:31.976Z,86.60
2018-09-19T23:39:01.424Z,85.90
2018-09-19T23:41:31.135Z,85.90
2018-09-19T23:44:00.655Z,85.80
2018-09-19T23:46:30.197Z,85.70
2018-09-19T23:48:59.840Z,85.50
2018-09-19T23:51:29.390Z,85.50
2018-09-19T23:53:59.056Z,85.60
2018-09-19T23:56:28.790Z,85.50
2018-09-19T23:58:58.551Z,85.80
